createdAt,value
2018-07-23T00:00:13.612Z,19.44
2018-07-23T00:01:13.787Z,19.41
2018-07-23T00:02:13.967Z,19.36
2018-07-23T00:03:14.140Z,19.36
2018-07-23T00:04:14.311Z,19.33
2018-07-23T00:05:14.498Z,19.36
2018-07-23T00:06:14.677Z,19.34
2018-07-23T00:07:14.851Z,19.33
2018-07-23T00:08:15.032Z,19.39
2018-07-23T00:09:15.205Z,19.34
2018-07-23T00:10:15.386Z,19.36
2018-07-23T00:11:15.557Z,19.27
2018-07-23T00:12:15.735Z,19.26
2018-07-23T00:13:15.908Z,19.22
2018-07-23T00:14:16.088Z,19.29
2018-07-23T00:15:16.270Z,19.31
2018-07-23T00:16:16.452Z,19.26
2018-07-23T00:17:16.628Z,19.30
2018-07-23T00:18:16.804Z,19.34
2018-07-23T00:19:16.977Z,19.29
2018-07-23T00:20:17.156Z,19.26
2018-07-23T00:21:17.333Z,19.26
2018-07-23T00:22:17.514Z,19.29
2018-07-23T00:23:17.691Z,19.26
2018-07-23T00:24:17.863Z,19.30
2018-07-23T00:25:18.039Z,19.29
2018-07-23T00:26:18.213Z,19.29
2018-07-23T00:27:18.386Z,19.30
2018-07-23T00:28:18.566Z,19.15
2018-07-23T00:29:18.748Z,19.29
2018-07-23T00:30:18.924Z,19.27
2018-07-23T00:31:19.089Z,19.21
2018-07-23T00:32:19.264Z,19.16
2018-07-23T00:33:19.448Z,19.08
2018-07-23T00:34:19.622Z,18.96
2018-07-23T00:35:19.805Z,19.14
2018-07-23T00:36:19.978Z,19.07
2018-07-23T00:37:20.154Z,19.12
2018-07-23T00:38:20.335Z,19.09
2018-07-23T00:39:20.513Z,19.00
2018-07-23T00:40:20.701Z,19.07
2018-07-23T00:41:20.885Z,18.98
2018-07-23T00:42:21.056Z,18.96
2018-07-23T00:43:21.228Z,19.07
2018-07-23T00:44:21.400Z,19.04
2018-07-23T00:45:21.576Z,19.07
2018-07-23T00:46:21.748Z,19.07
2018-07-23T00:47:21.928Z,19.04
2018-07-23T00:48:22.103Z,18.99
2018-07-23T00:49:22.284Z,18.95
2018-07-23T00:50:22.465Z,18.99
2018-07-23T00:51:22.638Z,18.99
2018-07-23T00:52:22.813Z,18.89
2018-07-23T00:53:22.986Z,18.90
2018-07-23T00:54:23.168Z,18.95
2018-07-23T00:55:23.347Z,18.89
2018-07-23T00:56:23.531Z,18.90
2018-07-23T00:57:23.700Z,18.84
2018-07-23T00:58:23.877Z,18.89
2018-07-23T00:59:24.058Z,18.84
2018-07-23T01:00:24.236Z,18.89
2018-07-23T01:01:24.412Z,18.86
2018-07-23T01:02:24.589Z,18.86
2018-07-23T01:03:24.774Z,18.92
2018-07-23T01:04:24.941Z,18.77
2018-07-23T01:05:25.112Z,18.88
2018-07-23T01:06:25.285Z,18.86
2018-07-23T01:07:25.463Z,18.71
2018-07-23T01:08:25.633Z,18.71
2018-07-23T01:09:25.808Z,18.78
2018-07-23T01:10:25.987Z,18.74
2018-07-23T01:11:26.158Z,18.71
2018-07-23T01:12:26.334Z,18.66
2018-07-23T01:13:26.510Z,18.65
2018-07-23T01:14:26.686Z,18.59
2018-07-23T01:15:26.857Z,18.59
2018-07-23T01:16:27.031Z,18.58
2018-07-23T01:17:27.205Z,18.60
2018-07-23T01:18:27.385Z,18.59
2018-07-23T01:19:27.564Z,18.63
2018-07-23T01:20:27.742Z,18.65
2018-07-23T01:21:31.644Z,18.60
2018-07-23T01:22:30.395Z,18.59
2018-07-23T01:23:28.459Z,18.59
2018-07-23T01:24:29.706Z,18.55
2018-07-23T01:25:28.682Z,18.56
2018-07-23T01:26:28.730Z,18.53
2018-07-23T01:27:30.079Z,18.47
2018-07-23T01:28:29.672Z,18.43
2018-07-23T01:29:29.641Z,18.41
2018-07-23T01:30:30.928Z,18.40
2018-07-23T01:31:29.520Z,18.41
2018-07-23T01:32:29.704Z,18.45
2018-07-23T01:33:29.880Z,18.35
2018-07-23T01:34:35.400Z,18.41
2018-07-23T01:35:30.232Z,18.34
2018-07-23T01:36:30.407Z,18.28
2018-07-23T01:37:30.589Z,18.31
2018-07-23T01:38:30.760Z,18.25
2018-07-23T01:39:30.937Z,18.34
2018-07-23T01:40:31.124Z,18.35
2018-07-23T01:41:31.310Z,18.33
2018-07-23T01:42:31.477Z,18.33
2018-07-23T01:43:31.650Z,18.25
2018-07-23T01:44:31.833Z,18.22
2018-07-23T01:45:32.008Z,18.29
2018-07-23T01:46:32.183Z,18.25
2018-07-23T01:47:32.355Z,18.22
2018-07-23T01:48:32.532Z,18.23
2018-07-23T01:49:32.714Z,18.15
2018-07-23T01:50:32.895Z,18.10
2018-07-23T01:51:33.069Z,18.20
2018-07-23T01:52:33.253Z,18.15
2018-07-23T01:53:33.426Z,18.20
2018-07-23T01:54:33.599Z,18.22
2018-07-23T01:55:33.777Z,18.20
2018-07-23T01:56:33.958Z,18.20
2018-07-23T01:57:34.129Z,18.11
2018-07-23T01:58:34.306Z,18.03
2018-07-23T01:59:34.485Z,18.04
2018-07-23T02:00:34.661Z,18.07
2018-07-23T02:01:34.840Z,17.98
2018-07-23T02:02:35.019Z,17.94
2018-07-23T02:03:35.190Z,18.05
2018-07-23T02:04:35.367Z,17.97
2018-07-23T02:05:35.540Z,17.94
2018-07-23T02:06:35.717Z,17.95
2018-07-23T02:07:35.899Z,17.94
2018-07-23T02:08:36.074Z,17.95
2018-07-23T02:09:36.245Z,18.04
2018-07-23T02:10:36.426Z,17.94
2018-07-23T02:11:36.605Z,17.94
2018-07-23T02:12:36.783Z,17.95
2018-07-23T02:13:36.958Z,17.98
2018-07-23T02:14:37.139Z,17.85
2018-07-23T02:15:37.310Z,18.00
2018-07-23T02:16:37.488Z,17.95
2018-07-23T02:17:37.662Z,17.86
2018-07-23T02:18:37.840Z,18.00
2018-07-23T02:19:38.029Z,18.03
2018-07-23T02:20:38.205Z,18.00
2018-07-23T02:21:38.375Z,18.03
2018-07-23T02:22:38.557Z,17.98
2018-07-23T02:23:38.734Z,18.01
2018-07-23T02:24:38.911Z,17.98
2018-07-23T02:25:39.087Z,17.94
2018-07-23T02:26:39.260Z,18.00
2018-07-23T02:27:39.444Z,18.00
2018-07-23T02:28:39.618Z,17.92
2018-07-23T02:29:39.797Z,17.94
2018-07-23T02:30:39.976Z,17.95
2018-07-23T02:31:40.152Z,17.90
2018-07-23T02:32:40.321Z,17.98
2018-07-23T02:33:40.507Z,17.97
2018-07-23T02:34:40.690Z,17.97
2018-07-23T02:35:40.865Z,18.01
2018-07-23T02:36:41.041Z,17.97
2018-07-23T02:37:41.219Z,17.97
2018-07-23T02:38:41.394Z,17.89
2018-07-23T02:39:41.573Z,17.86
2018-07-23T02:40:41.745Z,17.89
2018-07-23T02:41:41.914Z,17.85
2018-07-23T02:42:42.085Z,17.79
2018-07-23T02:43:42.263Z,17.80
2018-07-23T02:44:42.448Z,17.83
2018-07-23T02:45:42.631Z,17.83
2018-07-23T02:46:42.802Z,17.68
2018-07-23T02:47:42.973Z,17.71
2018-07-23T02:48:43.147Z,17.68
2018-07-23T02:49:43.325Z,17.71
2018-07-23T02:50:43.505Z,17.71
2018-07-23T02:51:43.689Z,17.57
2018-07-23T02:52:43.861Z,17.67
2018-07-23T02:53:44.035Z,17.63
2018-07-23T02:54:44.205Z,17.67
2018-07-23T02:55:44.385Z,17.57
2018-07-23T02:56:44.565Z,17.60
2018-07-23T02:57:44.742Z,17.60
2018-07-23T02:58:44.922Z,17.68
2018-07-23T02:59:45.163Z,17.59
2018-07-23T03:00:45.279Z,17.60
2018-07-23T03:01:45.471Z,17.57
2018-07-23T03:02:45.641Z,17.60
2018-07-23T03:03:45.833Z,17.68
2018-07-23T03:04:46.020Z,17.71
2018-07-23T03:05:46.193Z,17.78
2018-07-23T03:06:46.374Z,17.80
2018-07-23T03:07:46.547Z,17.82
2018-07-23T03:08:46.725Z,17.80
2018-07-23T03:09:46.900Z,17.74
2018-07-23T03:10:47.081Z,17.82
2018-07-23T03:11:47.258Z,17.68
2018-07-23T03:12:47.429Z,17.76
2018-07-23T03:13:47.605Z,17.71
2018-07-23T03:14:47.776Z,17.72
2018-07-23T03:15:47.955Z,17.76
2018-07-23T03:16:48.132Z,17.83
2018-07-23T03:17:48.311Z,17.80
2018-07-23T03:18:48.481Z,17.78
2018-07-23T03:19:48.658Z,17.79
2018-07-23T03:20:48.841Z,17.80
2018-07-23T03:21:49.041Z,17.78
2018-07-23T03:22:49.189Z,17.82
2018-07-23T03:23:49.364Z,17.74
2018-07-23T03:24:49.542Z,17.79
2018-07-23T03:25:49.717Z,17.85
2018-07-23T03:26:49.890Z,17.83
2018-07-23T03:27:50.066Z,17.83
2018-07-23T03:28:50.248Z,17.87
2018-07-23T03:29:50.420Z,17.92
2018-07-23T03:30:50.591Z,17.87
2018-07-23T03:31:50.771Z,17.98
2018-07-23T03:32:50.939Z,18.01
2018-07-23T03:33:51.126Z,18.04
2018-07-23T03:34:51.299Z,18.04
2018-07-23T03:35:51.478Z,17.98
2018-07-23T03:36:51.652Z,18.07
2018-07-23T03:37:51.825Z,18.01
2018-07-23T03:38:52.005Z,18.04
2018-07-23T03:39:52.178Z,17.97
2018-07-23T03:40:52.360Z,18.00
2018-07-23T03:41:52.537Z,18.00
2018-07-23T03:42:52.716Z,18.00
2018-07-23T03:43:52.918Z,18.00
2018-07-23T03:44:53.102Z,17.98
2018-07-23T03:45:53.281Z,17.97
2018-07-23T03:46:53.455Z,18.00
2018-07-23T03:47:53.640Z,18.03
2018-07-23T03:48:53.820Z,18.16
2018-07-23T03:49:53.993Z,18.11
2018-07-23T03:50:54.175Z,18.16
2018-07-23T03:51:54.352Z,18.05
2018-07-23T03:52:54.531Z,18.05
2018-07-23T03:53:54.706Z,18.05
2018-07-23T03:54:54.877Z,18.13
2018-07-23T03:55:55.060Z,18.10
2018-07-23T03:56:55.244Z,18.07
2018-07-23T03:57:55.431Z,18.10
2018-07-23T03:58:55.600Z,18.11
2018-07-23T03:59:55.773Z,18.11
2018-07-23T04:00:55.945Z,18.05
2018-07-23T04:01:56.122Z,18.13
2018-07-23T04:02:56.305Z,18.04
2018-07-23T04:03:56.481Z,18.00
2018-07-23T04:04:56.661Z,17.92
2018-07-23T04:05:56.837Z,17.87
2018-07-23T04:06:57.012Z,17.92
2018-07-23T04:07:57.187Z,17.92
2018-07-23T04:08:59.771Z,17.92
2018-07-23T04:09:58.673Z,17.98
2018-07-23T04:11:00.010Z,17.85
2018-07-23T04:12:00.533Z,17.83
2018-07-23T04:12:59.851Z,17.90
2018-07-23T04:13:58.260Z,17.86
2018-07-23T04:15:01.551Z,17.83
2018-07-23T04:16:00.470Z,17.86
2018-07-23T04:16:59.939Z,17.80
2018-07-23T04:17:59.998Z,17.83
2018-07-23T04:18:59.283Z,17.80
2018-07-23T04:19:59.445Z,17.87
2018-07-23T04:20:59.618Z,17.80
2018-07-23T04:21:59.771Z,17.87
2018-07-23T04:22:59.899Z,17.98
2018-07-23T04:23:59.915Z,18.00
2018-07-23T04:25:00.247Z,17.98
2018-07-23T04:26:00.409Z,18.00
2018-07-23T04:27:00.608Z,18.08
2018-07-23T04:28:00.715Z,18.13
2018-07-23T04:29:00.859Z,18.11
2018-07-23T04:30:00.978Z,18.05
2018-07-23T04:31:01.142Z,18.13
2018-07-23T04:32:01.198Z,18.11
2018-07-23T04:33:01.312Z,17.97
2018-07-23T04:34:01.561Z,18.04
2018-07-23T04:35:01.775Z,18.08
2018-07-23T04:36:01.914Z,18.20
2018-07-23T04:37:02.169Z,18.13
2018-07-23T04:38:02.390Z,18.10
2018-07-23T04:39:02.373Z,18.19
2018-07-23T04:40:02.722Z,18.07
2018-07-23T04:41:04.754Z,18.07
2018-07-23T04:42:04.882Z,17.95
2018-07-23T04:43:03.094Z,17.97
2018-07-23T04:44:03.163Z,18.10
2018-07-23T04:45:03.142Z,18.00
2018-07-23T04:46:03.318Z,18.04
2018-07-23T04:47:03.496Z,18.10
2018-07-23T04:48:03.680Z,18.07
2018-07-23T04:49:03.863Z,17.98
2018-07-23T04:50:04.044Z,18.13
2018-07-23T04:51:04.219Z,18.11
2018-07-23T04:52:04.535Z,18.10
2018-07-23T04:53:04.589Z,17.97
2018-07-23T04:54:04.772Z,17.95
2018-07-23T04:55:04.963Z,17.90
2018-07-23T04:56:05.137Z,17.95
2018-07-23T04:57:05.349Z,17.90
2018-07-23T04:58:05.493Z,17.87
2018-07-23T04:59:05.705Z,17.87
2018-07-23T05:00:05.867Z,17.86
2018-07-23T05:01:06.053Z,17.90
2018-07-23T05:02:06.232Z,18.01
2018-07-23T05:03:06.408Z,18.00
2018-07-23T05:04:06.598Z,17.98
2018-07-23T05:05:07.349Z,18.05
2018-07-23T05:06:07.524Z,18.22
2018-07-23T05:07:07.060Z,18.22
2018-07-23T05:08:07.240Z,18.23
2018-07-23T05:09:07.416Z,18.33
2018-07-23T05:10:07.594Z,18.41
2018-07-23T05:11:07.775Z,18.45
2018-07-23T05:12:07.944Z,18.58
2018-07-23T05:13:08.122Z,18.59
2018-07-23T05:14:08.295Z,18.77
2018-07-23T05:15:08.479Z,18.80
2018-07-23T05:16:08.668Z,18.71
2018-07-23T05:17:08.857Z,18.81
2018-07-23T05:18:09.062Z,18.89
2018-07-23T05:19:09.234Z,19.07
2018-07-23T05:20:09.413Z,19.15
2018-07-23T05:21:09.611Z,19.15
2018-07-23T05:22:09.791Z,19.07
2018-07-23T05:23:09.963Z,18.99
2018-07-23T05:24:10.195Z,19.00
2018-07-23T05:25:10.249Z,19.15
2018-07-23T05:26:11.650Z,19.15
2018-07-23T05:27:11.751Z,19.14
2018-07-23T05:28:12.506Z,19.11
2018-07-23T05:29:11.024Z,19.19
2018-07-23T05:30:11.068Z,19.14
2018-07-23T05:31:11.244Z,19.26
2018-07-23T05:32:11.413Z,19.22
2018-07-23T05:33:11.597Z,19.36
2018-07-23T05:34:11.975Z,19.39
2018-07-23T05:35:11.920Z,19.51
2018-07-23T05:36:12.100Z,19.62
2018-07-23T05:37:12.304Z,19.63
2018-07-23T05:38:12.514Z,19.81
2018-07-23T05:39:12.642Z,19.82
2018-07-23T05:40:12.826Z,19.85
2018-07-23T05:41:12.995Z,19.92
2018-07-23T05:42:13.178Z,19.88
2018-07-23T05:43:13.365Z,19.96
2018-07-23T05:44:13.542Z,19.89
2018-07-23T05:45:13.719Z,20.02
2018-07-23T05:46:13.907Z,20.06
2018-07-23T05:47:15.083Z,19.94
2018-07-23T05:48:14.276Z,20.10
2018-07-23T05:49:14.452Z,20.16
2018-07-23T05:50:14.629Z,20.36
2018-07-23T05:51:14.814Z,20.29
2018-07-23T05:52:14.993Z,20.48
2018-07-23T05:53:15.180Z,20.37
2018-07-23T05:54:18.105Z,20.36
2018-07-23T05:55:15.545Z,20.44
2018-07-23T05:56:15.718Z,20.44
2018-07-23T05:57:15.897Z,20.48
2018-07-23T05:58:16.110Z,20.55
2018-07-23T05:59:16.290Z,20.41
2018-07-23T06:00:16.468Z,20.65
2018-07-23T06:01:16.648Z,20.66
2018-07-23T06:02:16.829Z,20.75
2018-07-23T06:03:17.011Z,20.84
2018-07-23T06:04:17.189Z,20.85
2018-07-23T06:05:17.364Z,20.92
2018-07-23T06:06:17.591Z,21.02
2018-07-23T06:07:17.741Z,20.92
2018-07-23T06:08:17.924Z,20.96
2018-07-23T06:09:18.106Z,21.00
2018-07-23T06:10:18.284Z,21.15
2018-07-23T06:11:18.503Z,21.03
2018-07-23T06:12:18.682Z,21.11
2018-07-23T06:13:18.854Z,21.14
2018-07-23T06:14:19.034Z,21.29
2018-07-23T06:15:19.215Z,21.29
2018-07-23T06:16:19.389Z,21.45
2018-07-23T06:17:19.564Z,21.51
2018-07-23T06:18:19.745Z,21.60
2018-07-23T06:19:20.121Z,21.66
2018-07-23T06:20:20.058Z,21.61
2018-07-23T06:21:20.236Z,21.83
2018-07-23T06:22:20.411Z,21.99
2018-07-23T06:23:20.622Z,22.20
2018-07-23T06:24:20.767Z,22.30
2018-07-23T06:25:21.039Z,22.60
2018-07-23T06:26:21.073Z,22.87
2018-07-23T06:27:21.800Z,23.08
2018-07-23T06:28:21.571Z,23.28
2018-07-23T06:29:21.980Z,23.73
2018-07-23T06:30:22.012Z,23.96
2018-07-23T06:31:21.980Z,24.05
2018-07-23T06:32:22.189Z,24.05
2018-07-23T06:33:22.392Z,24.29
2018-07-23T06:34:22.572Z,24.58
2018-07-23T06:35:26.051Z,24.95
2018-07-23T06:36:22.972Z,25.17
2018-07-23T06:37:23.161Z,25.65
2018-07-23T06:38:23.349Z,25.85
2018-07-23T06:39:23.530Z,26.00
2018-07-23T06:40:23.722Z,26.29
2018-07-23T06:41:24.000Z,26.55
2018-07-23T06:42:24.126Z,26.47
2018-07-23T06:43:24.350Z,26.70
2018-07-23T06:44:24.487Z,27.07
2018-07-23T06:45:24.680Z,27.15
2018-07-23T06:46:24.860Z,27.35
2018-07-23T06:47:25.049Z,27.60
2018-07-23T06:48:25.228Z,28.04
2018-07-23T06:49:25.416Z,28.37
2018-07-23T06:50:25.612Z,28.86
2018-07-23T06:51:25.797Z,29.01
2018-07-23T06:52:25.978Z,28.70
2018-07-23T06:53:26.165Z,28.63
2018-07-23T06:54:26.369Z,28.44
2018-07-23T06:55:26.545Z,28.26
2018-07-23T06:56:26.723Z,28.49
2018-07-23T06:57:26.935Z,28.86
2018-07-23T06:58:27.097Z,29.35
2018-07-23T06:59:27.281Z,29.61
2018-07-23T07:00:27.512Z,29.79
2018-07-23T07:01:27.676Z,29.88
2018-07-23T07:02:27.873Z,30.21
2018-07-23T07:03:28.054Z,30.31
2018-07-23T07:04:28.242Z,30.31
2018-07-23T07:05:28.428Z,30.24
2018-07-23T07:06:28.814Z,30.35
2018-07-23T07:07:28.771Z,30.53
2018-07-23T07:08:28.962Z,30.94
2018-07-23T07:09:29.200Z,31.21
2018-07-23T07:10:29.396Z,31.58
2018-07-23T07:11:29.581Z,31.96
2018-07-23T07:12:29.766Z,32.18
2018-07-23T07:13:30.062Z,32.30
2018-07-23T07:14:30.160Z,32.49
2018-07-23T07:15:30.398Z,32.75
2018-07-23T07:16:30.590Z,32.58
2018-07-23T07:17:30.775Z,32.68
2018-07-23T07:18:30.958Z,33.05
2018-07-23T07:19:31.155Z,33.20
2018-07-23T07:20:31.368Z,33.31
2018-07-23T07:21:31.559Z,33.52
2018-07-23T07:22:31.752Z,33.65
2018-07-23T07:23:31.941Z,33.62
2018-07-23T07:24:32.138Z,33.86
2018-07-23T07:25:32.410Z,34.01
2018-07-23T07:26:32.531Z,34.21
2018-07-23T07:27:32.717Z,34.33
2018-07-23T07:28:32.923Z,34.80
2018-07-23T07:29:33.100Z,35.02
2018-07-23T07:30:33.285Z,35.44
2018-07-23T07:31:33.484Z,35.66
2018-07-23T07:32:33.665Z,35.89
2018-07-23T07:33:33.856Z,36.25
2018-07-23T07:34:34.049Z,36.33
2018-07-23T07:35:34.236Z,36.70
2018-07-23T07:36:34.425Z,36.88
2018-07-23T07:37:34.626Z,36.86
2018-07-23T07:38:34.825Z,36.67
2018-07-23T07:39:35.011Z,36.68
2018-07-23T07:40:35.195Z,36.49
2018-07-23T07:41:35.416Z,36.74
2018-07-23T07:42:35.603Z,37.15
2018-07-23T07:43:35.800Z,37.55
2018-07-23T07:44:35.993Z,37.99
2018-07-23T07:45:36.187Z,38.27
2018-07-23T07:46:36.487Z,38.60
2018-07-23T07:47:36.551Z,38.31
2018-07-23T07:48:36.742Z,38.28
2018-07-23T07:49:36.929Z,38.28
2018-07-23T07:50:37.156Z,37.96
2018-07-23T07:51:37.337Z,38.20
2018-07-23T07:52:37.536Z,38.19
2018-07-23T07:53:37.727Z,38.20
2018-07-23T07:54:37.920Z,38.36
2018-07-23T07:55:38.105Z,38.46
2018-07-23T07:56:38.294Z,38.39
2018-07-23T07:57:38.577Z,38.58
2018-07-23T07:58:38.713Z,39.09
2018-07-23T07:59:40.221Z,39.25
2018-07-23T08:00:39.062Z,39.37
2018-07-23T08:01:39.248Z,39.22
2018-07-23T08:02:39.441Z,39.07
2018-07-23T08:03:39.676Z,38.80
2018-07-23T08:04:39.828Z,38.61
2018-07-23T08:05:40.107Z,38.79
2018-07-23T08:06:40.211Z,38.96
2018-07-23T08:07:40.426Z,39.30
2018-07-23T08:08:40.618Z,39.37
2018-07-23T08:09:40.820Z,39.49
2018-07-23T08:10:41.081Z,39.74
2018-07-23T08:11:41.231Z,39.93
2018-07-23T08:12:41.336Z,40.06
2018-07-23T08:13:41.523Z,40.02
2018-07-23T08:14:41.719Z,40.08
2018-07-23T08:15:41.905Z,40.26
2018-07-23T08:16:42.099Z,40.38
2018-07-23T08:17:42.281Z,40.82
2018-07-23T08:18:42.467Z,41.00
2018-07-23T08:19:42.663Z,40.87
2018-07-23T08:20:42.847Z,40.81
2018-07-23T08:21:43.036Z,40.77
2018-07-23T08:22:43.231Z,40.81
2018-07-23T08:23:43.420Z,40.68
2018-07-23T08:24:43.610Z,40.12
2018-07-23T08:25:43.809Z,40.58
2018-07-23T08:26:44.018Z,41.00
2018-07-23T08:27:44.237Z,41.12
2018-07-23T08:28:44.385Z,41.29
2018-07-23T08:29:44.574Z,41.24
2018-07-23T08:30:44.761Z,41.37
2018-07-23T08:31:45.093Z,41.75
2018-07-23T08:32:45.087Z,41.77
2018-07-23T08:33:45.279Z,41.53
2018-07-23T08:34:45.474Z,41.41
2018-07-23T08:35:45.673Z,41.56
2018-07-23T08:36:45.872Z,41.56
2018-07-23T08:37:46.065Z,41.88
2018-07-23T08:38:46.276Z,42.19
2018-07-23T08:39:46.564Z,42.45
2018-07-23T08:40:46.717Z,42.29
2018-07-23T08:41:46.788Z,42.10
2018-07-23T08:42:46.977Z,42.47
2018-07-23T08:43:47.176Z,42.53
2018-07-23T08:44:47.371Z,41.45
2018-07-23T08:45:47.584Z,41.83
2018-07-23T08:46:47.773Z,41.85
2018-07-23T08:47:48.018Z,41.75
2018-07-23T08:48:48.207Z,41.59
2018-07-23T08:49:48.394Z,41.04
2018-07-23T08:50:48.599Z,41.06
2018-07-23T08:51:48.786Z,40.63
2018-07-23T08:52:48.972Z,40.87
2018-07-23T08:53:49.165Z,41.36
2018-07-23T08:54:49.384Z,41.40
2018-07-23T08:55:49.545Z,41.55
2018-07-23T08:56:49.747Z,41.22
2018-07-23T08:57:49.954Z,41.04
2018-07-23T08:58:50.472Z,40.88
2018-07-23T08:59:50.274Z,40.43
2018-07-23T09:00:50.473Z,41.26
2018-07-23T09:01:50.663Z,41.65
2018-07-23T09:02:50.860Z,42.06
2018-07-23T09:03:51.061Z,42.17
2018-07-23T09:04:51.331Z,42.36
2018-07-23T09:05:51.377Z,42.55
2018-07-23T09:06:51.602Z,42.28
2018-07-23T09:07:51.827Z,42.35
2018-07-23T09:08:52.143Z,42.21
2018-07-23T09:09:52.315Z,42.32
2018-07-23T09:10:52.470Z,42.41
2018-07-23T09:11:52.773Z,42.57
2018-07-23T09:12:52.969Z,42.67
2018-07-23T09:13:53.021Z,42.82
2018-07-23T09:14:53.262Z,42.63
2018-07-23T09:15:53.431Z,42.21
2018-07-23T09:16:53.634Z,41.63
2018-07-23T09:17:53.982Z,41.24
2018-07-23T09:18:54.052Z,40.81
2018-07-23T09:19:54.273Z,40.27
2018-07-23T09:20:54.541Z,39.17
2018-07-23T09:21:54.653Z,38.28
2018-07-23T09:22:54.779Z,37.86
2018-07-23T09:23:54.984Z,37.11
2018-07-23T09:24:55.193Z,37.44
2018-07-23T09:25:55.263Z,37.55
2018-07-23T09:26:55.459Z,37.17
2018-07-23T09:27:55.686Z,37.83
2018-07-23T09:28:55.885Z,37.58
2018-07-23T09:29:56.104Z,38.09
2018-07-23T09:30:56.345Z,37.67
2018-07-23T09:31:56.493Z,36.81
2018-07-23T09:32:56.681Z,36.21
2018-07-23T09:33:57.100Z,35.97
2018-07-23T09:34:57.087Z,35.60
2018-07-23T09:35:57.267Z,35.22
2018-07-23T09:36:57.471Z,35.24
2018-07-23T09:37:57.740Z,36.57
2018-07-23T09:38:57.929Z,37.49
2018-07-23T09:39:58.147Z,38.33
2018-07-23T09:40:58.320Z,38.02
2018-07-23T09:41:59.368Z,37.75
2018-07-23T09:42:58.695Z,37.18
2018-07-23T09:43:58.937Z,37.49
2018-07-23T09:44:59.452Z,37.87
2018-07-23T09:45:59.290Z,38.14
2018-07-23T09:46:59.618Z,36.84
2018-07-23T09:47:59.771Z,36.16
2018-07-23T09:48:59.900Z,35.76
2018-07-23T09:50:00.114Z,35.27
2018-07-23T09:51:00.296Z,34.60
2018-07-23T09:52:00.476Z,33.99
2018-07-23T09:53:00.662Z,33.62
2018-07-23T09:54:00.912Z,33.24
2018-07-23T09:55:00.985Z,33.22
2018-07-23T09:56:01.174Z,32.87
2018-07-23T09:57:01.360Z,32.45
2018-07-23T09:58:01.550Z,32.29
2018-07-23T09:59:01.743Z,33.30
2018-07-23T10:00:01.977Z,32.75
2018-07-23T10:01:02.140Z,32.45
2018-07-23T10:02:02.471Z,32.45
2018-07-23T10:03:02.631Z,32.68
2018-07-23T10:04:02.737Z,32.71
2018-07-23T10:05:02.920Z,32.43
2018-07-23T10:06:03.121Z,32.46
2018-07-23T10:07:03.299Z,33.31
2018-07-23T10:08:03.493Z,34.13
2018-07-23T10:09:03.700Z,33.80
2018-07-23T10:10:03.885Z,33.71
2018-07-23T10:11:04.186Z,34.23
2018-07-23T10:12:04.271Z,34.96
2018-07-23T10:13:04.474Z,35.66
2018-07-23T10:14:04.657Z,36.35
2018-07-23T10:15:04.843Z,36.88
2018-07-23T10:16:05.029Z,37.23
2018-07-23T10:17:05.216Z,36.68
2018-07-23T10:18:05.412Z,35.92
2018-07-23T10:19:05.602Z,35.53
2018-07-23T10:20:05.785Z,34.97
2018-07-23T10:21:05.974Z,35.00
2018-07-23T10:22:06.216Z,35.39
2018-07-23T10:23:06.390Z,35.29
2018-07-23T10:24:06.575Z,35.34
2018-07-23T10:25:06.764Z,35.31
2018-07-23T10:26:06.957Z,35.45
2018-07-23T10:27:07.156Z,35.53
2018-07-23T10:28:07.367Z,35.12
2018-07-23T10:29:07.572Z,35.00
2018-07-23T10:30:08.092Z,34.85
2018-07-23T10:31:07.877Z,34.21
2018-07-23T10:32:08.066Z,33.95
2018-07-23T10:33:08.269Z,34.08
2018-07-23T10:34:08.458Z,34.14
2018-07-23T10:35:08.734Z,33.87
2018-07-23T10:36:08.835Z,33.68
2018-07-23T10:37:09.027Z,34.02
2018-07-23T10:38:09.215Z,34.06
2018-07-23T10:39:09.408Z,33.92
2018-07-23T10:40:09.610Z,34.14
2018-07-23T10:41:09.840Z,34.32
2018-07-23T10:42:09.984Z,34.42
2018-07-23T10:43:10.165Z,34.08
2018-07-23T10:44:10.365Z,33.92
2018-07-23T10:45:10.546Z,33.92
2018-07-23T10:46:11.943Z,33.94
2018-07-23T10:47:10.912Z,33.87
2018-07-23T10:48:11.159Z,33.77
2018-07-23T10:49:11.340Z,33.64
2018-07-23T10:50:11.535Z,33.27
2018-07-23T10:51:11.731Z,33.11
2018-07-23T10:52:11.909Z,32.70
2018-07-23T10:53:12.100Z,32.70
2018-07-23T10:54:12.285Z,32.83
2018-07-23T10:55:12.465Z,33.11
2018-07-23T10:56:12.648Z,33.07
2018-07-23T10:57:12.841Z,33.14
2018-07-23T10:58:13.022Z,33.30
2018-07-23T10:59:13.216Z,33.49
2018-07-23T11:00:13.400Z,33.52
2018-07-23T11:01:13.587Z,33.58
2018-07-23T11:02:13.779Z,33.47
2018-07-23T11:03:13.997Z,33.27
2018-07-23T11:04:14.219Z,33.12
2018-07-23T11:05:14.390Z,32.95
2018-07-23T11:06:14.560Z,32.93
2018-07-23T11:07:14.779Z,32.80
2018-07-23T11:08:14.945Z,32.53
2018-07-23T11:09:15.129Z,32.59
2018-07-23T11:10:15.352Z,32.49
2018-07-23T11:11:15.548Z,32.48
2018-07-23T11:12:15.724Z,32.59
2018-07-23T11:13:15.928Z,32.73
2018-07-23T11:14:16.124Z,32.70
2018-07-23T11:15:16.315Z,32.85
2018-07-23T11:16:16.527Z,33.08
2018-07-23T11:17:16.751Z,33.15
2018-07-23T11:18:16.918Z,33.49
2018-07-23T11:19:17.174Z,33.27
2018-07-23T11:20:17.912Z,33.19
2018-07-23T11:21:17.472Z,32.86
2018-07-23T11:22:17.681Z,32.96
2018-07-23T11:23:17.914Z,33.07
2018-07-23T11:24:18.115Z,33.08
2018-07-23T11:25:39.176Z,33.15
2018-07-23T11:26:18.451Z,33.08
2018-07-23T11:27:18.651Z,33.05
2018-07-23T11:28:19.091Z,33.08
2018-07-23T11:29:18.990Z,32.96
2018-07-23T11:30:19.184Z,33.15
2018-07-23T11:31:21.745Z,33.07
2018-07-23T11:32:19.586Z,33.20
2018-07-23T11:33:19.779Z,32.92
2018-07-23T11:34:20.626Z,32.82
2018-07-23T11:35:21.083Z,32.73
2018-07-23T11:36:21.532Z,33.07
2018-07-23T11:37:22.866Z,33.12
2018-07-23T11:38:20.682Z,33.04
2018-07-23T11:39:20.893Z,32.93
2018-07-23T11:40:22.943Z,32.77
2018-07-23T11:41:22.240Z,32.64
2018-07-23T11:42:21.819Z,32.49
2018-07-23T11:43:21.588Z,32.59
2018-07-23T11:44:21.805Z,32.71
2018-07-23T11:45:23.406Z,32.73
2018-07-23T11:46:24.983Z,32.74
2018-07-23T11:47:22.959Z,32.74
2018-07-23T11:48:22.430Z,32.74
2018-07-23T11:49:22.635Z,32.56
2018-07-23T11:50:22.841Z,32.70
2018-07-23T11:51:23.029Z,32.60
2018-07-23T11:52:23.229Z,32.41
2018-07-23T11:53:23.572Z,32.45
2018-07-23T11:54:23.610Z,32.65
2018-07-23T11:55:25.048Z,32.70
2018-07-23T11:56:26.488Z,32.82
2018-07-23T11:57:25.189Z,32.75
2018-07-23T11:58:26.559Z,32.77
2018-07-23T11:59:25.479Z,32.70
2018-07-23T12:00:26.493Z,32.77
2018-07-23T12:01:26.026Z,32.86
2018-07-23T12:02:26.586Z,32.83
2018-07-23T12:03:25.818Z,32.71
2018-07-23T12:04:26.293Z,32.51
2018-07-23T12:05:26.356Z,32.59
2018-07-23T12:06:27.054Z,32.74
2018-07-23T12:07:26.063Z,32.60
2018-07-23T12:08:26.382Z,32.09
2018-07-23T12:09:26.917Z,32.22
2018-07-23T12:10:26.584Z,32.12
2018-07-23T12:11:26.539Z,32.15
2018-07-23T12:12:26.737Z,32.01
2018-07-23T12:13:27.689Z,32.04
2018-07-23T12:14:27.759Z,31.71
2018-07-23T12:15:27.422Z,31.49
2018-07-23T12:16:27.742Z,31.34
2018-07-23T12:17:28.971Z,31.17
2018-07-23T12:18:28.369Z,31.09
2018-07-23T12:19:28.072Z,31.22
2018-07-23T12:20:28.493Z,31.21
2018-07-23T12:21:28.463Z,31.27
2018-07-23T12:22:28.680Z,31.40
2018-07-23T12:23:28.869Z,31.58
2018-07-23T12:24:29.055Z,31.78
2018-07-23T12:25:29.232Z,32.01
2018-07-23T12:26:29.470Z,32.15
2018-07-23T12:27:29.539Z,32.01
2018-07-23T12:28:29.770Z,32.00
2018-07-23T12:29:29.835Z,32.09
2018-07-23T12:30:30.069Z,32.18
2018-07-23T12:31:30.259Z,32.33
2018-07-23T12:32:30.579Z,32.41
2018-07-23T12:33:31.056Z,32.37
2018-07-23T12:34:30.804Z,32.36
2018-07-23T12:35:30.998Z,31.96
2018-07-23T12:36:31.161Z,32.04
2018-07-23T12:37:31.348Z,32.19
2018-07-23T12:38:31.535Z,32.00
2018-07-23T12:39:31.732Z,32.08
2018-07-23T12:40:31.893Z,31.81
2018-07-23T12:41:32.078Z,31.58
2018-07-23T12:42:32.259Z,31.59
2018-07-23T12:43:32.444Z,31.47
2018-07-23T12:44:32.632Z,31.31
2018-07-23T12:45:32.809Z,31.39
2018-07-23T12:46:33.094Z,31.51
2018-07-23T12:47:33.261Z,31.47
2018-07-23T12:48:33.446Z,31.49
2018-07-23T12:49:33.641Z,31.47
2018-07-23T12:50:33.836Z,31.44
2018-07-23T12:51:34.031Z,31.66
2018-07-23T12:52:34.218Z,31.78
2018-07-23T12:53:34.403Z,31.87
2018-07-23T12:54:34.584Z,32.07